Time;durP1;ratioP1;P1;durP2;ratioP2;P2;SDS_P1;SDS_P2;PMS_P1;PMS_P2;Temp;Humidity;BMP_temperature;BMP_pressure;BME280_temperature;BME280_humidity;BME280_pressure;Samples;Min_cycle;Max_cycle;Signal;HPM_P1;HPM_P2
2023/04/20 00:02:13;;;;;;;;;;;20.00;41.60;;;;;;5090113;28;19920;-64
2023/04/20 00:04:40;;;;;;;;;;;20.00;41.60;;;;;;5096101;28;19920;-64
2023/04/20 00:07:07;;;;;;;;;;;20.00;41.60;;;;;;5096275;28;19920;-64
2023/04/20 00:09:34;;;;;;;;;;;20.00;41.60;;;;;;5071917;28;19963;-64
2023/04/20 00:12:02;;;;;;;;;;;20.00;41.60;;;;;;5079917;28;19920;-64
2023/04/20 00:14:29;;;;;;;;;;;20.00;41.60;;;;;;5075971;28;19966;-64
2023/04/20 00:16:56;;;;;;;;;;;20.00;41.60;;;;;;5074458;28;19930;-64
2023/04/20 00:19:22;;;;;;;;;;;20.00;41.60;;;;;;5072717;28;19986;-64
2023/04/20 00:21:49;;;;;;;;;;;20.00;41.60;;;;;;5074279;28;19921;-64
2023/04/20 00:24:16;;;;;;;;;;;20.00;41.60;;;;;;5068028;28;19965;-64
2023/04/20 00:26:42;;;;;;;;;;;20.00;41.60;;;;;;5082812;28;19969;-63
2023/04/20 00:29:11;;;;;;;;;;;20.00;41.60;;;;;;5058684;28;19920;-65
2023/04/20 00:31:37;;;;;;;;;;;20.00;41.60;;;;;;5078833;28;19924;-63
2023/04/20 00:34:04;;;;;;;;;;;20.00;41.60;;;;;;5067631;28;19943;-64
2023/04/20 00:36:31;;;;;;;;;;;20.00;41.50;;;;;;5064275;28;19924;-65
2023/04/20 00:38:58;;;;;;;;;;;20.00;41.50;;;;;;5076329;28;19970;-64
2023/04/20 00:41:25;;;;;;;;;;;20.00;41.60;;;;;;5077507;28;19921;-64
2023/04/20 00:43:52;;;;;;;;;;;20.00;41.50;;;;;;5071563;28;19969;-64
2023/04/20 00:46:21;;;;;;;;;;;20.00;41.50;;;;;;5090101;28;19920;-63
2023/04/20 00:48:47;;;;;;;;;;;20.00;41.50;;;;;;5061697;28;20385;-64
2023/04/20 00:51:14;;;;;;;;;;;20.00;41.50;;;;;;5073801;28;19920;-65
2023/04/20 00:53:41;;;;;;;;;;;20.00;41.50;;;;;;5081570;28;19924;-64
2023/04/20 00:56:08;;;;;;;;;;;20.00;41.50;;;;;;5071462;28;19952;-65
2023/04/20 00:58:34;;;;;;;;;;;20.00;41.50;;;;;;5065113;28;19920;-65
2023/04/20 01:01:01;;;;;;;;;;;20.00;41.50;;;;;;5067771;28;19924;-64
2023/04/20 01:03:29;;;;;;;;;;;20.00;41.50;;;;;;5067118;28;19924;-63
2023/04/20 01:05:56;;;;;;;;;;;20.00;41.50;;;;;;5075468;28;19962;-64
2023/04/20 01:08:25;;;;;;;;;;;20.00;41.50;;;;;;5072926;28;19932;-64
2023/04/20 01:10:52;;;;;;;;;;;20.00;41.50;;;;;;5066481;28;19919;-65
2023/04/20 01:13:18;;;;;;;;;;;20.00;41.50;;;;;;5071521;28;19927;-64
2023/04/20 01:15:45;;;;;;;;;;;20.00;41.50;;;;;;5072681;28;19927;-64
2023/04/20 01:18:12;;;;;;;;;;;20.00;41.50;;;;;;5062416;28;19935;-64
2023/04/20 01:20:40;;;;;;;;;;;20.00;41.50;;;;;;5070268;28;19927;-64
2023/04/20 01:23:08;;;;;;;;;;;20.00;42.10;;;;;;5078138;28;19923;-62
2023/04/20 01:25:35;;;;;;;;;;;20.00;41.50;;;;;;5073044;28;19943;-64
2023/04/20 01:28:03;;;;;;;;;;;20.00;41.50;;;;;;5073340;28;19942;-65
2023/04/20 01:30:30;;;;;;;;;;;20.00;41.40;;;;;;5091346;28;19927;-64
2023/04/20 01:32:57;;;;;;;;;;;20.00;41.40;;;;;;5071601;28;19920;-63
2023/04/20 01:35:23;;;;;;;;;;;20.00;41.40;;;;;;5089052;28;19959;-65
2023/04/20 01:37:50;;;;;;;;;;;20.00;41.40;;;;;;5081382;28;19962;-64
2023/04/20 01:40:18;;;;;;;;;;;20.00;41.40;;;;;;5063419;28;19928;-65
2023/04/20 01:42:45;;;;;;;;;;;20.00;41.40;;;;;;5073990;28;19920;-64
2023/04/20 01:45:12;;;;;;;;;;;20.00;41.40;;;;;;5087766;28;19986;-64
2023/04/20 01:47:39;;;;;;;;;;;20.00;41.40;;;;;;5066460;28;19928;-64
2023/04/20 01:50:06;;;;;;;;;;;20.00;41.40;;;;;;5086101;28;20374;-62
2023/04/20 01:52:32;;;;;;;;;;;20.00;41.50;;;;;;5077820;28;19927;-65
2023/04/20 01:54:59;;;;;;;;;;;20.00;41.50;;;;;;5070277;28;19920;-64
2023/04/20 01:57:27;;;;;;;;;;;20.00;41.40;;;;;;5068629;28;19927;-64
2023/04/20 01:59:54;;;;;;;;;;;20.00;41.40;;;;;;5054399;28;19989;-63
2023/04/20 02:02:21;;;;;;;;;;;20.00;41.40;;;;;;5070179;28;20007;-64
2023/04/20 02:05:06;;;;;;;;;;;20.00;41.40;;;;;;5086862;28;20428;-63
2023/04/20 02:07:33;;;;;;;;;;;20.00;41.40;;;;;;5071216;28;20019;-63
2023/04/20 02:10:00;;;;;;;;;;;20.00;41.40;;;;;;5072367;28;19969;-64
2023/04/20 02:12:29;;;;;;;;;;;20.00;41.50;;;;;;5052537;28;19920;-64
2023/04/20 02:14:56;;;;;;;;;;;20.00;41.40;;;;;;5070972;28;20035;-64
2023/04/20 02:17:23;;;;;;;;;;;20.00;41.40;;;;;;5085418;28;19920;-64
2023/04/20 02:19:49;;;;;;;;;;;20.00;41.40;;;;;;5062834;28;19969;-63
2023/04/20 02:22:16;;;;;;;;;;;20.00;41.40;;;;;;5067299;28;19951;-64
2023/04/20 02:24:43;;;;;;;;;;;20.00;41.40;;;;;;5068374;28;19924;-64
2023/04/20 02:27:10;;;;;;;;;;;20.00;41.40;;;;;;5068827;28;19973;-64
2023/04/20 02:29:38;;;;;;;;;;;20.00;41.40;;;;;;5067131;28;19920;-63
2023/04/20 02:32:06;;;;;;;;;;;20.00;41.70;;;;;;5058825;28;19924;-64
2023/04/20 02:34:33;;;;;;;;;;;20.00;41.40;;;;;;5058142;28;19920;-64
2023/04/20 02:37:00;;;;;;;;;;;20.00;41.30;;;;;;5076554;28;19977;-63
2023/04/20 02:39:26;;;;;;;;;;;20.00;41.40;;;;;;5071031;28;19931;-64
2023/04/20 02:41:53;;;;;;;;;;;20.00;41.40;;;;;;5066502;28;20370;-63
2023/04/20 02:44:20;;;;;;;;;;;20.00;41.40;;;;;;5068537;28;19924;-64
2023/04/20 02:46:48;;;;;;;;;;;20.00;41.30;;;;;;5088437;28;19920;-63
2023/04/20 02:49:15;;;;;;;;;;;20.00;41.30;;;;;;5070716;28;19924;-64
2023/04/20 02:51:41;;;;;;;;;;;20.00;41.40;;;;;;5089286;28;19924;-63
2023/04/20 02:54:08;;;;;;;;;;;20.00;41.30;;;;;;5075563;28;19925;-64
2023/04/20 02:56:35;;;;;;;;;;;20.00;41.30;;;;;;5065541;28;20370;-65
2023/04/20 02:59:02;;;;;;;;;;;20.00;41.30;;;;;;5070552;28;19920;-63
2023/04/20 03:01:29;;;;;;;;;;;20.00;41.30;;;;;;5067554;28;19924;-63
2023/04/20 03:03:57;;;;;;;;;;;20.00;41.40;;;;;;5089130;28;19920;-64
2023/04/20 03:06:25;;;;;;;;;;;20.00;41.30;;;;;;5071635;28;19920;-64
2023/04/20 03:08:52;;;;;;;;;;;20.00;41.30;;;;;;5076496;28;19951;-64
2023/04/20 03:11:19;;;;;;;;;;;20.00;41.30;;;;;;5063685;28;19920;-62
2023/04/20 03:13:46;;;;;;;;;;;20.00;41.30;;;;;;5068820;28;19927;-63
2023/04/20 03:16:13;;;;;;;;;;;20.00;41.30;;;;;;5073898;28;19925;-63
2023/04/20 03:18:40;;;;;;;;;;;20.00;41.30;;;;;;5080785;28;19965;-63
2023/04/20 03:21:08;;;;;;;;;;;20.00;41.30;;;;;;5089057;28;19948;-62
2023/04/20 03:23:35;;;;;;;;;;;20.00;41.30;;;;;;5087435;28;19924;-63
2023/04/20 03:26:02;;;;;;;;;;;20.00;41.30;;;;;;5076698;28;19920;-64
2023/04/20 03:28:28;;;;;;;;;;;20.00;41.30;;;;;;5056036;28;19924;-64
2023/04/20 03:30:55;;;;;;;;;;;20.00;41.30;;;;;;5069970;28;19932;-63
2023/04/20 03:33:22;;;;;;;;;;;20.00;41.30;;;;;;5076780;28;20328;-63
2023/04/20 03:35:49;;;;;;;;;;;20.00;41.30;;;;;;5071139;28;19977;-63
2023/04/20 03:38:17;;;;;;;;;;;20.00;41.30;;;;;;5081894;28;20439;-64
2023/04/20 03:40:44;;;;;;;;;;;20.00;41.30;;;;;;5062603;28;19920;-64
2023/04/20 03:43:11;;;;;;;;;;;20.00;41.30;;;;;;5060992;28;19920;-64
2023/04/20 03:45:38;;;;;;;;;;;20.00;41.20;;;;;;5079575;28;19928;-64
2023/04/20 03:48:05;;;;;;;;;;;20.00;41.30;;;;;;5056541;28;20099;-64
2023/04/20 03:50:32;;;;;;;;;;;20.00;41.30;;;;;;5074985;28;19920;-65
2023/04/20 03:52:58;;;;;;;;;;;20.00;41.20;;;;;;5090657;28;19920;-65
2023/04/20 03:55:27;;;;;;;;;;;19.90;41.20;;;;;;5092191;28;19977;-64
2023/04/20 03:57:53;;;;;;;;;;;20.00;41.20;;;;;;5075672;28;19928;-64
2023/04/20 04:00:20;;;;;;;;;;;20.00;41.20;;;;;;5071736;28;19943;-64
2023/04/20 04:02:47;;;;;;;;;;;19.90;41.20;;;;;;5089599;28;19988;-63
2023/04/20 04:05:14;;;;;;;;;;;20.00;41.20;;;;;;5061019;28;19920;-63
2023/04/20 04:07:41;;;;;;;;;;;19.90;41.20;;;;;;5066175;28;20005;-64
2023/04/20 04:10:08;;;;;;;;;;;20.00;41.20;;;;;;5074550;28;20006;-64
2023/04/20 04:12:36;;;;;;;;;;;19.90;41.20;;;;;;5070755;28;19981;-64
2023/04/20 04:15:04;;;;;;;;;;;20.00;41.20;;;;;;5056903;28;19928;-65
2023/04/20 04:17:30;;;;;;;;;;;20.00;41.20;;;;;;5082007;28;19920;-62
2023/04/20 04:19:57;;;;;;;;;;;19.90;41.20;;;;;;5077777;28;19921;-65
2023/04/20 04:22:24;;;;;;;;;;;20.00;41.20;;;;;;5063785;28;19931;-65
2023/04/20 04:24:53;;;;;;;;;;;20.00;41.20;;;;;;5069739;28;19927;-63
2023/04/20 04:27:21;;;;;;;;;;;20.00;41.20;;;;;;5072926;28;19952;-64
2023/04/20 04:29:49;;;;;;;;;;;20.00;41.20;;;;;;5071647;28;19928;-65
2023/04/20 04:32:16;;;;;;;;;;;20.00;41.20;;;;;;5071427;28;19972;-64
2023/04/20 04:34:43;;;;;;;;;;;20.00;41.20;;;;;;5075793;28;20362;-65
2023/04/20 04:37:10;;;;;;;;;;;19.90;41.20;;;;;;5072681;28;19924;-64
2023/04/20 04:39:37;;;;;;;;;;;20.00;41.20;;;;;;5085430;28;19921;-65
2023/04/20 04:42:04;;;;;;;;;;;19.90;41.20;;;;;;5082902;28;19965;-64
2023/04/20 04:44:32;;;;;;;;;;;20.00;41.20;;;;;;5067089;28;19977;-65
2023/04/20 04:47:02;;;;;;;;;;;19.90;41.20;;;;;;5078422;28;19920;-65
2023/04/20 04:49:28;;;;;;;;;;;19.90;41.20;;;;;;5084444;28;19924;-64
2023/04/20 04:51:56;;;;;;;;;;;19.90;41.20;;;;;;5076118;28;19927;-65
2023/04/20 04:54:22;;;;;;;;;;;19.90;41.10;;;;;;5061335;28;19920;-65
2023/04/20 04:56:49;;;;;;;;;;;19.90;41.10;;;;;;5066339;28;19921;-65
2023/04/20 04:59:16;;;;;;;;;;;19.90;41.10;;;;;;5073960;28;20363;-64
2023/04/20 05:01:42;;;;;;;;;;;19.90;41.20;;;;;;5070574;28;19920;-65
2023/04/20 05:04:11;;;;;;;;;;;19.90;41.10;;;;;;5075326;28;20102;-65
2023/04/20 05:06:37;;;;;;;;;;;19.90;41.10;;;;;;5083498;28;19920;-65
2023/04/20 05:09:04;;;;;;;;;;;19.90;41.20;;;;;;5062040;28;20224;-64
2023/04/20 05:11:31;;;;;;;;;;;19.90;41.20;;;;;;5082754;28;19921;-65
2023/04/20 05:13:59;;;;;;;;;;;19.90;41.20;;;;;;5087506;28;19921;-65
2023/04/20 05:16:28;;;;;;;;;;;19.90;41.10;;;;;;5056725;28;19928;-65
2023/04/20 05:18:55;;;;;;;;;;;20.00;41.20;;;;;;5067054;28;20278;-65
2023/04/20 05:21:23;;;;;;;;;;;19.90;41.10;;;;;;5070608;28;19920;-66
2023/04/20 05:23:49;;;;;;;;;;;19.90;41.10;;;;;;5072486;28;19955;-65
2023/04/20 05:26:17;;;;;;;;;;;19.90;41.20;;;;;;5062361;28;19924;-66
2023/04/20 05:28:44;;;;;;;;;;;19.90;41.20;;;;;;5088473;28;19927;-65
2023/04/20 05:31:10;;;;;;;;;;;19.90;41.20;;;;;;5092028;28;19939;-66
2023/04/20 05:33:37;;;;;;;;;;;19.90;41.20;;;;;;5077378;28;19920;-62
2023/04/20 05:36:04;;;;;;;;;;;19.90;41.20;;;;;;5068645;28;19920;-65
2023/04/20 05:38:32;;;;;;;;;;;19.90;41.10;;;;;;5086409;28;20297;-64
2023/04/20 05:40:59;;;;;;;;;;;19.90;41.20;;;;;;5070846;28;20358;-65
2023/04/20 05:43:25;;;;;;;;;;;19.90;41.20;;;;;;5054987;28;19924;-64
2023/04/20 05:45:52;;;;;;;;;;;19.90;41.20;;;;;;5066669;28;19924;-65
2023/04/20 05:48:19;;;;;;;;;;;19.90;41.20;;;;;;5069408;28;20171;-65
2023/04/20 05:50:46;;;;;;;;;;;20.00;41.30;;;;;;5073551;28;20005;-65
2023/04/20 05:53:13;;;;;;;;;;;19.90;41.20;;;;;;5072244;28;20019;-64
2023/04/20 05:55:41;;;;;;;;;;;20.00;41.20;;;;;;5060441;28;20394;-64
2023/04/20 05:58:08;;;;;;;;;;;20.00;41.30;;;;;;5052447;28;19921;-63
2023/04/20 06:00:35;;;;;;;;;;;20.00;41.30;;;;;;5089252;28;20419;-63
2023/04/20 06:03:01;;;;;;;;;;;19.90;41.20;;;;;;5090254;28;19987;-64
2023/04/20 06:05:28;;;;;;;;;;;20.00;41.30;;;;;;5071973;28;19920;-65
2023/04/20 06:07:55;;;;;;;;;;;20.00;41.30;;;;;;5070193;28;19920;-65
2023/04/20 06:10:22;;;;;;;;;;;20.00;41.30;;;;;;5086313;28;19965;-66
2023/04/20 06:12:50;;;;;;;;;;;20.00;41.20;;;;;;5067433;28;19973;-65
2023/04/20 06:15:17;;;;;;;;;;;20.00;41.30;;;;;;5067314;28;20875;-65
2023/04/20 06:17:46;;;;;;;;;;;20.00;41.30;;;;;;5058228;28;20270;-65
2023/04/20 06:20:12;;;;;;;;;;;20.00;41.30;;;;;;5066572;28;19920;-65
2023/04/20 06:22:42;;;;;;;;;;;20.00;41.30;;;;;;5057086;28;19920;-65
2023/04/20 06:25:09;;;;;;;;;;;20.00;41.30;;;;;;5082260;28;20429;-66
2023/04/20 06:27:36;;;;;;;;;;;20.00;41.30;;;;;;5086466;28;19962;-64
2023/04/20 06:30:04;;;;;;;;;;;20.00;41.30;;;;;;5064077;28;19920;-65
2023/04/20 06:32:31;;;;;;;;;;;20.00;41.30;;;;;;5055940;28;20010;-65
2023/04/20 06:34:58;;;;;;;;;;;20.00;41.40;;;;;;5084603;28;19931;-65
2023/04/20 06:37:24;;;;;;;;;;;20.00;41.30;;;;;;5075626;28;19937;-65
2023/04/20 06:39:53;;;;;;;;;;;20.00;41.40;;;;;;5068217;28;19955;-63
2023/04/20 06:42:19;;;;;;;;;;;20.00;41.40;;;;;;5060327;28;19966;-63
2023/04/20 06:44:46;;;;;;;;;;;20.00;41.30;;;;;;5058472;28;19959;-65
2023/04/20 06:47:15;;;;;;;;;;;20.00;41.40;;;;;;5072371;28;19920;-65
2023/04/20 06:49:42;;;;;;;;;;;20.00;41.40;;;;;;5064924;28;20273;-65
2023/04/20 06:52:09;;;;;;;;;;;20.00;41.40;;;;;;5073707;28;19924;-64
2023/04/20 06:54:35;;;;;;;;;;;20.00;41.40;;;;;;5085063;28;19920;-65
2023/04/20 06:57:02;;;;;;;;;;;20.00;41.40;;;;;;5076541;28;19920;-65
2023/04/20 06:59:29;;;;;;;;;;;20.00;41.40;;;;;;5077316;28;19935;-64
2023/04/20 07:01:55;;;;;;;;;;;20.00;41.40;;;;;;5054152;28;20408;-64
2023/04/20 07:04:26;;;;;;;;;;;20.00;41.40;;;;;;5071826;28;19974;-66
2023/04/20 07:06:53;;;;;;;;;;;20.00;41.40;;;;;;5053675;28;19920;-63
2023/04/20 07:09:21;;;;;;;;;;;20.00;41.40;;;;;;5073497;28;19969;-63
2023/04/20 07:11:48;;;;;;;;;;;20.00;41.40;;;;;;5064882;28;19925;-64
2023/04/20 07:14:15;;;;;;;;;;;20.00;41.40;;;;;;5082686;28;19934;-63
2023/04/20 07:16:42;;;;;;;;;;;20.00;41.40;;;;;;5069994;28;20011;-63
2023/04/20 07:19:09;;;;;;;;;;;20.00;41.40;;;;;;5072501;28;19931;-64
2023/04/20 07:21:37;;;;;;;;;;;20.00;41.40;;;;;;5071702;28;19961;-62
2023/04/20 07:24:04;;;;;;;;;;;20.00;41.40;;;;;;5073815;28;19927;-64
2023/04/20 07:26:31;;;;;;;;;;;20.00;41.40;;;;;;5076280;28;20269;-64
2023/04/20 07:28:58;;;;;;;;;;;20.00;41.40;;;;;;5077336;28;19920;-64
2023/04/20 07:31:25;;;;;;;;;;;20.00;41.40;;;;;;5074277;28;20461;-64
2023/04/20 07:33:52;;;;;;;;;;;20.00;41.40;;;;;;5075581;28;19970;-65
2023/04/20 07:36:20;;;;;;;;;;;20.00;41.40;;;;;;5073127;28;19971;-65
2023/04/20 07:38:49;;;;;;;;;;;20.00;41.40;;;;;;5074725;28;19926;-63
2023/04/20 07:41:15;;;;;;;;;;;20.00;41.40;;;;;;5092872;28;19920;-65
2023/04/20 07:43:43;;;;;;;;;;;20.00;41.40;;;;;;5076310;28;19973;-65
2023/04/20 07:46:10;;;;;;;;;;;20.00;41.40;;;;;;5072456;28;20001;-64
2023/04/20 07:48:37;;;;;;;;;;;20.00;41.50;;;;;;5093336;28;19919;-63
2023/04/20 07:51:03;;;;;;;;;;;20.00;41.40;;;;;;5090747;28;19927;-64
2023/04/20 07:53:30;;;;;;;;;;;20.00;41.40;;;;;;5094369;28;19927;-65
2023/04/20 07:55:58;;;;;;;;;;;20.00;41.50;;;;;;5058907;28;20038;-64
2023/04/20 07:58:25;;;;;;;;;;;20.00;41.50;;;;;;5093689;28;20506;-62
2023/04/20 08:00:52;;;;;;;;;;;20.00;41.50;;;;;;5091386;28;19953;-65
2023/04/20 08:03:19;;;;;;;;;;;20.00;41.40;;;;;;5073943;28;20182;-63
2023/04/20 08:05:46;;;;;;;;;;;20.00;41.50;;;;;;5072799;28;19939;-64
2023/04/20 08:08:12;;;;;;;;;;;20.10;41.50;;;;;;5075859;28;20333;-65
2023/04/20 08:10:39;;;;;;;;;;;20.00;41.50;;;;;;5092893;28;19931;-63
2023/04/20 08:13:07;;;;;;;;;;;20.00;41.50;;;;;;5092742;28;19926;-64
2023/04/20 08:15:34;;;;;;;;;;;20.00;41.50;;;;;;5091180;28;19924;-64
2023/04/20 08:18:01;;;;;;;;;;;20.00;41.50;;;;;;5092684;28;20338;-63
2023/04/20 08:20:28;;;;;;;;;;;20.00;41.50;;;;;;5071759;28;19924;-64
2023/04/20 08:22:54;;;;;;;;;;;20.00;41.50;;;;;;5075199;28;19920;-64
2023/04/20 08:25:21;;;;;;;;;;;20.00;41.50;;;;;;5065912;28;19927;-65
2023/04/20 08:27:48;;;;;;;;;;;20.00;41.50;;;;;;5067115;28;19931;-65
2023/04/20 08:30:16;;;;;;;;;;;20.00;41.50;;;;;;5090178;28;19927;-65
2023/04/20 08:32:43;;;;;;;;;;;20.00;41.50;;;;;;5076113;28;19970;-66
2023/04/20 08:35:10;;;;;;;;;;;20.00;41.50;;;;;;5068786;28;19956;-63
2023/04/20 08:37:37;;;;;;;;;;;20.00;41.50;;;;;;5072512;28;19927;-65
2023/04/20 08:40:04;;;;;;;;;;;20.00;41.50;;;;;;5069204;28;19920;-65
2023/04/20 08:42:31;;;;;;;;;;;20.00;41.50;;;;;;5065446;28;20014;-63
2023/04/20 08:44:58;;;;;;;;;;;20.00;41.50;;;;;;5090357;28;19969;-65
2023/04/20 08:47:26;;;;;;;;;;;20.00;41.50;;;;;;5075540;28;19919;-65
2023/04/20 08:49:53;;;;;;;;;;;20.00;41.50;;;;;;5067867;28;19920;-63
2023/04/20 08:52:19;;;;;;;;;;;20.00;41.50;;;;;;5054160;28;19924;-63
2023/04/20 08:54:46;;;;;;;;;;;20.00;41.50;;;;;;5053293;28;20424;-64
2023/04/20 08:57:13;;;;;;;;;;;20.00;41.50;;;;;;5053689;28;19927;-64
2023/04/20 08:59:40;;;;;;;;;;;20.00;41.60;;;;;;5071592;28;19977;-64
2023/04/20 09:02:11;;;;;;;;;;;20.00;41.50;;;;;;5053400;28;20386;-63
2023/04/20 09:04:39;;;;;;;;;;;20.00;41.50;;;;;;5053925;28;20011;-63
2023/04/20 09:07:06;;;;;;;;;;;20.00;41.50;;;;;;5058408;28;19965;-65
2023/04/20 09:09:32;;;;;;;;;;;20.00;41.50;;;;;;5074349;28;19959;-65
2023/04/20 09:12:01;;;;;;;;;;;20.00;41.60;;;;;;5074590;28;19942;-65
2023/04/20 09:14:27;;;;;;;;;;;20.00;41.60;;;;;;5072386;28;19920;-62
2023/04/20 09:16:56;;;;;;;;;;;20.00;41.50;;;;;;5091892;28;19920;-65
2023/04/20 09:19:23;;;;;;;;;;;20.00;41.50;;;;;;5071134;28;20023;-65
2023/04/20 09:21:53;;;;;;;;;;;20.00;41.60;;;;;;5087950;28;20027;-63
2023/04/20 09:24:19;;;;;;;;;;;20.00;41.60;;;;;;5073379;28;19924;-65
2023/04/20 09:26:47;;;;;;;;;;;20.00;41.60;;;;;;5089400;28;19927;-65
2023/04/20 09:29:16;;;;;;;;;;;20.10;41.60;;;;;;5090442;28;19924;-63
2023/04/20 09:31:43;;;;;;;;;;;20.00;41.60;;;;;;5090556;28;19932;-63
2023/04/20 09:34:10;;;;;;;;;;;20.00;41.60;;;;;;5092134;28;19973;-64
2023/04/20 09:36:37;;;;;;;;;;;20.00;41.60;;;;;;5090394;28;19920;-62
2023/04/20 09:39:05;;;;;;;;;;;20.10;41.60;;;;;;5072586;28;19942;-65
2023/04/20 09:41:33;;;;;;;;;;;20.10;41.60;;;;;;5070702;28;19920;-65
2023/04/20 09:44:00;;;;;;;;;;;20.10;41.60;;;;;;5074247;28;20018;-65
2023/04/20 09:46:28;;;;;;;;;;;20.00;41.60;;;;;;5071598;28;20023;-65
2023/04/20 09:48:58;;;;;;;;;;;20.10;41.60;;;;;;5074497;28;19920;-65
2023/04/20 09:51:25;;;;;;;;;;;20.00;41.60;;;;;;5073645;28;19927;-65
2023/04/20 09:53:53;;;;;;;;;;;20.10;41.70;;;;;;5090203;28;19970;-64
2023/04/20 09:56:21;;;;;;;;;;;20.10;41.70;;;;;;5070893;28;19924;-65
2023/04/20 09:58:48;;;;;;;;;;;20.10;41.70;;;;;;5073069;28;19920;-65
2023/04/20 10:01:17;;;;;;;;;;;20.10;41.70;;;;;;5060431;28;20370;-64
2023/04/20 10:03:44;;;;;;;;;;;20.10;41.70;;;;;;5084001;28;19921;-64
2023/04/20 10:06:18;;;;;;;;;;;20.10;41.70;;;;;;5089878;28;19924;-64
2023/04/20 10:08:44;;;;;;;;;;;20.10;41.70;;;;;;5072380;28;19950;-64
2023/04/20 10:11:11;;;;;;;;;;;20.10;41.70;;;;;;5086702;28;20443;-64
2023/04/20 10:13:39;;;;;;;;;;;20.10;41.70;;;;;;5073873;28;19920;-65
2023/04/20 10:16:06;;;;;;;;;;;20.10;41.70;;;;;;5088699;28;19927;-63
2023/04/20 10:18:33;;;;;;;;;;;20.10;41.70;;;;;;5090030;28;20064;-65
2023/04/20 10:21:04;;;;;;;;;;;20.10;41.70;;;;;;5089537;28;19932;-65
2023/04/20 10:23:33;;;;;;;;;;;20.10;41.70;;;;;;5088256;28;19966;-65
2023/04/20 10:26:00;;;;;;;;;;;20.10;41.70;;;;;;5086271;28;19921;-65
2023/04/20 10:28:38;;;;;;;;;;;20.10;41.70;;;;;;5072599;28;19920;-65
2023/04/20 10:31:07;;;;;;;;;;;20.10;41.70;;;;;;5072043;28;19963;-64
2023/04/20 10:33:34;;;;;;;;;;;20.10;41.70;;;;;;5069599;28;20338;-65
2023/04/20 10:36:00;;;;;;;;;;;20.10;42.30;;;;;;5089736;28;19924;-65
2023/04/20 10:38:28;;;;;;;;;;;20.10;41.70;;;;;;5073001;28;19927;-65
2023/04/20 10:40:55;;;;;;;;;;;20.10;41.70;;;;;;5085589;28;20023;-64
2023/04/20 10:43:22;;;;;;;;;;;20.10;41.70;;;;;;5059015;28;19920;-64
2023/04/20 10:45:49;;;;;;;;;;;20.10;41.70;;;;;;5073425;28;19920;-65
2023/04/20 10:48:17;;;;;;;;;;;20.10;41.70;;;;;;5068316;28;19920;-63
2023/04/20 10:50:44;;;;;;;;;;;20.10;41.70;;;;;;5054549;28;19921;-64
2023/04/20 10:53:17;;;;;;;;;;;20.10;41.80;;;;;;5072948;28;19924;-65
2023/04/20 10:55:44;;;;;;;;;;;20.10;41.70;;;;;;5067869;28;19920;-63
2023/04/20 10:58:20;;;;;;;;;;;20.10;41.70;;;;;;5087703;28;19924;-64
2023/04/20 11:00:46;;;;;;;;;;;20.10;41.80;;;;;;5084644;28;19928;-64
2023/04/20 11:03:13;;;;;;;;;;;20.10;41.80;;;;;;5049726;28;19920;-63
2023/04/20 11:05:41;;;;;;;;;;;20.10;41.80;;;;;;5051719;28;19928;-63
2023/04/20 11:08:08;;;;;;;;;;;20.10;41.70;;;;;;5051404;28;20396;-64
2023/04/20 11:10:39;;;;;;;;;;;20.10;41.80;;;;;;5058323;28;19935;-63
2023/04/20 11:13:07;;;;;;;;;;;20.10;41.70;;;;;;5071584;28;19927;-63
2023/04/20 11:15:33;;;;;;;;;;;20.10;41.80;;;;;;5071776;28;19973;-63
2023/04/20 11:18:06;;;;;;;;;;;20.10;41.80;;;;;;5071169;28;19920;-64
2023/04/20 11:20:32;;;;;;;;;;;20.10;41.80;;;;;;5071244;28;19977;-64
2023/04/20 11:23:03;;;;;;;;;;;20.10;41.80;;;;;;5088376;28;19927;-64
2023/04/20 11:25:30;;;;;;;;;;;20.10;41.80;;;;;;5070798;28;19932;-64
2023/04/20 11:28:05;;;;;;;;;;;20.10;41.80;;;;;;5088282;28;19920;-63
2023/04/20 11:30:37;;;;;;;;;;;20.10;41.80;;;;;;5089457;28;19964;-64
2023/04/20 11:33:04;;;;;;;;;;;20.10;41.80;;;;;;5087787;28;19989;-64
2023/04/20 11:35:35;;;;;;;;;;;20.10;41.80;;;;;;5089147;28;19935;-64
2023/04/20 11:38:03;;;;;;;;;;;20.10;42.40;;;;;;5071021;28;19920;-63
2023/04/20 11:40:30;;;;;;;;;;;20.10;41.80;;;;;;5089089;28;20001;-64
2023/04/20 11:42:58;;;;;;;;;;;20.10;41.80;;;;;;5071382;28;19920;-63
2023/04/20 11:45:26;;;;;;;;;;;20.10;41.80;;;;;;5071311;28;19920;-63
2023/04/20 11:47:54;;;;;;;;;;;20.10;41.80;;;;;;5070182;28;19966;-64
2023/04/20 11:50:21;;;;;;;;;;;20.10;41.80;;;;;;5089626;28;20012;-63
2023/04/20 11:52:47;;;;;;;;;;;20.10;41.80;;;;;;5087772;28;20030;-64
2023/04/20 11:55:16;;;;;;;;;;;20.10;41.80;;;;;;5088282;28;19920;-63
2023/04/20 11:57:42;;;;;;;;;;;20.10;41.80;;;;;;5088249;28;19920;-64
2023/04/20 12:00:13;;;;;;;;;;;20.10;41.80;;;;;;5071193;28;19962;-64
2023/04/20 12:02:40;;;;;;;;;;;20.10;41.90;;;;;;5053398;28;19924;-64
2023/04/20 12:05:08;;;;;;;;;;;20.10;41.80;;;;;;5069203;28;20367;-64
2023/04/20 12:07:35;;;;;;;;;;;20.10;41.80;;;;;;5051369;28;19921;-64
2023/04/20 12:10:02;;;;;;;;;;;20.10;41.80;;;;;;5055853;28;19928;-64
2023/04/20 12:12:30;;;;;;;;;;;20.10;41.80;;;;;;5064336;28;19921;-64
2023/04/20 12:14:57;;;;;;;;;;;20.10;41.80;;;;;;5054591;28;19924;-64
2023/04/20 12:17:24;;;;;;;;;;;20.10;41.80;;;;;;5072429;28;19928;-64
2023/04/20 12:19:51;;;;;;;;;;;20.10;42.50;;;;;;5054220;28;19924;-64
2023/04/20 12:22:18;;;;;;;;;;;20.10;41.90;;;;;;5054717;28;19953;-63
2023/04/20 12:24:45;;;;;;;;;;;20.10;41.90;;;;;;5056261;28;19931;-63
2023/04/20 12:27:11;;;;;;;;;;;20.10;41.90;;;;;;5054413;28;19931;-64
2023/04/20 12:29:39;;;;;;;;;;;20.10;41.90;;;;;;5054394;28;19966;-62
2023/04/20 12:32:06;;;;;;;;;;;20.10;41.90;;;;;;5053814;28;19935;-62
2023/04/20 12:34:34;;;;;;;;;;;20.10;41.90;;;;;;5071080;28;19942;-63
2023/04/20 12:37:01;;;;;;;;;;;20.10;41.90;;;;;;5054284;28;19959;-64
2023/04/20 12:39:27;;;;;;;;;;;20.10;41.90;;;;;;5054632;28;19927;-64
2023/04/20 12:41:54;;;;;;;;;;;20.10;41.90;;;;;;5079291;28;20389;-64
2023/04/20 12:44:21;;;;;;;;;;;20.10;41.90;;;;;;5092241;28;19924;-63
2023/04/20 12:46:49;;;;;;;;;;;20.10;41.90;;;;;;5090710;28;19970;-63
2023/04/20 12:49:16;;;;;;;;;;;20.10;41.90;;;;;;5074091;28;19974;-63
2023/04/20 12:51:43;;;;;;;;;;;20.10;41.90;;;;;;5073692;28;19924;-63
2023/04/20 12:54:10;;;;;;;;;;;20.10;41.90;;;;;;5074171;28;19920;-64
2023/04/20 12:56:39;;;;;;;;;;;20.10;41.90;;;;;;5073785;28;19986;-63
2023/04/20 12:59:06;;;;;;;;;;;20.10;41.90;;;;;;5074063;28;19947;-63
2023/04/20 13:01:33;;;;;;;;;;;20.10;41.90;;;;;;5068406;28;20348;-63
2023/04/20 13:04:01;;;;;;;;;;;20.10;41.90;;;;;;5070195;28;19920;-63
2023/04/20 13:06:28;;;;;;;;;;;20.10;41.90;;;;;;5070640;28;20012;-63
2023/04/20 13:08:55;;;;;;;;;;;20.10;41.90;;;;;;5053486;28;19953;-64
2023/04/20 13:11:22;;;;;;;;;;;20.10;41.90;;;;;;5070161;28;19925;-64
2023/04/20 13:13:48;;;;;;;;;;;20.10;41.90;;;;;;5053474;28;19952;-63
2023/04/20 13:16:15;;;;;;;;;;;20.10;41.90;;;;;;5053514;28;20278;-64
2023/04/20 13:18:42;;;;;;;;;;;20.10;41.90;;;;;;5053115;28;19950;-63
2023/04/20 13:21:10;;;;;;;;;;;20.10;41.90;;;;;;5052471;28;19928;-62
2023/04/20 13:23:38;;;;;;;;;;;20.10;41.90;;;;;;5071236;28;20092;-63
2023/04/20 13:26:06;;;;;;;;;;;20.10;41.90;;;;;;5053112;28;19921;-63
2023/04/20 13:28:32;;;;;;;;;;;20.10;41.90;;;;;;5071372;28;20390;-63
2023/04/20 13:30:59;;;;;;;;;;;20.10;41.90;;;;;;5069600;28;20278;-63
2023/04/20 13:33:26;;;;;;;;;;;20.10;41.90;;;;;;5070972;28;20351;-63
2023/04/20 13:35:53;;;;;;;;;;;20.10;41.90;;;;;;5053394;28;19974;-63
2023/04/20 13:38:21;;;;;;;;;;;20.10;42.00;;;;;;5053180;28;19921;-63
2023/04/20 13:40:48;;;;;;;;;;;20.10;41.90;;;;;;5069621;28;20278;-63
2023/04/20 13:43:15;;;;;;;;;;;20.10;41.90;;;;;;5053134;28;19920;-63
2023/04/20 13:45:42;;;;;;;;;;;20.10;42.00;;;;;;5070951;28;19927;-63
2023/04/20 13:48:08;;;;;;;;;;;20.10;41.90;;;;;;5070275;28;19926;-63
2023/04/20 13:50:35;;;;;;;;;;;20.10;42.00;;;;;;5069330;28;19974;-63
2023/04/20 13:53:02;;;;;;;;;;;20.10;42.00;;;;;;5070598;28;19986;-64
2023/04/20 13:55:31;;;;;;;;;;;20.10;42.00;;;;;;5052843;28;19921;-63
2023/04/20 13:57:57;;;;;;;;;;;20.10;41.90;;;;;;5065483;28;19920;-63
2023/04/20 14:00:25;;;;;;;;;;;20.10;41.90;;;;;;5072210;28;20421;-63
2023/04/20 14:02:51;;;;;;;;;;;20.10;42.00;;;;;;5088888;28;19924;-63
2023/04/20 14:05:18;;;;;;;;;;;20.10;42.00;;;;;;5072412;28;19920;-63
2023/04/20 14:07:45;;;;;;;;;;;20.10;42.00;;;;;;5090098;28;19924;-62
2023/04/20 14:10:11;;;;;;;;;;;20.10;42.00;;;;;;5086936;28;19993;-63
2023/04/20 14:12:39;;;;;;;;;;;20.10;42.00;;;;;;5070280;28;19924;-62
2023/04/20 14:15:06;;;;;;;;;;;20.10;42.00;;;;;;5068925;28;19970;-63
2023/04/20 14:17:33;;;;;;;;;;;20.10;42.00;;;;;;5060206;28;19977;-63